createdAt,value
2022-09-23T00:04:29.869Z,14.90
2022-09-23T00:09:36.309Z,14.89
2022-09-23T00:14:42.506Z,14.88
2022-09-23T00:19:48.700Z,14.87
2022-09-23T00:24:54.935Z,14.86
2022-09-23T00:30:01.185Z,14.86
2022-09-23T00:35:09.209Z,14.89
2022-09-23T00:40:15.496Z,14.85
2022-09-23T00:45:21.705Z,14.84
2022-09-23T00:50:30.775Z,14.87
2022-09-23T00:55:39.475Z,14.86
2022-09-23T01:00:46.778Z,14.86
2022-09-23T01:05:53.315Z,14.85
2022-09-23T01:11:04.437Z,14.85
2022-09-23T01:16:14.802Z,14.87
2022-09-23T01:21:27.086Z,14.85
2022-09-23T01:26:42.358Z,14.85
2022-09-23T01:31:53.548Z,14.84
2022-09-23T01:37:04.426Z,14.85
2022-09-23T01:42:17.290Z,14.84
2022-09-23T01:47:25.245Z,14.84
2022-09-23T01:52:34.179Z,14.82
2022-09-23T01:57:42.033Z,14.81
2022-09-23T02:02:51.289Z,14.83
2022-09-23T02:08:00.220Z,14.84
2022-09-23T02:13:10.111Z,14.83
2022-09-23T02:18:18.336Z,14.80
2022-09-23T02:23:26.846Z,14.83
2022-09-23T02:28:34.453Z,14.79
2022-09-23T02:33:45.224Z,14.81
2022-09-23T02:38:54.509Z,14.80
2022-09-23T02:44:03.326Z,14.80
2022-09-23T02:49:12.926Z,14.79
2022-09-23T02:54:20.702Z,14.81
2022-09-23T02:59:26.900Z,14.79
2022-09-23T03:04:36.730Z,14.81
2022-09-23T03:09:48.811Z,14.78
2022-09-23T03:14:56.526Z,14.78
2022-09-23T03:20:04.701Z,14.81
2022-09-23T03:25:13.905Z,14.79
2022-09-23T03:30:22.071Z,14.78
2022-09-23T03:35:29.621Z,14.76
2022-09-23T03:40:38.629Z,14.76
2022-09-23T03:45:45.390Z,14.76
2022-09-23T03:50:51.592Z,14.76
2022-09-23T03:55:58.749Z,14.75
2022-09-23T04:01:06.138Z,14.75
2022-09-23T04:06:12.687Z,14.77
2022-09-23T04:11:19.051Z,14.77
2022-09-23T04:16:25.811Z,14.76
2022-09-23T04:21:32.285Z,14.75
2022-09-23T04:26:38.974Z,14.73
2022-09-23T04:31:45.291Z,14.73
2022-09-23T04:36:52.345Z,14.72
2022-09-23T04:41:58.871Z,14.71
2022-09-23T04:47:05.707Z,14.73
2022-09-23T04:52:12.431Z,14.72
2022-09-23T04:57:19.121Z,14.72
2022-09-23T05:02:25.830Z,14.76
2022-09-23T05:07:32.161Z,14.72
2022-09-23T05:12:38.564Z,14.72
2022-09-23T05:17:45.145Z,14.72
2022-09-23T05:22:53.107Z,14.73
2022-09-23T05:27:59.641Z,14.82
2022-09-23T05:33:05.901Z,14.88
2022-09-23T05:38:12.283Z,14.92
2022-09-23T05:43:18.711Z,14.97
2022-09-23T05:48:25.211Z,15.01
2022-09-23T05:53:31.794Z,15.05
2022-09-23T05:58:38.956Z,15.10
2022-09-23T06:03:47.491Z,15.14
2022-09-23T06:08:54.241Z,15.19
2022-09-23T06:14:02.841Z,15.22
2022-09-23T06:19:10.819Z,15.27
2022-09-23T06:24:21.232Z,15.31
2022-09-23T06:29:31.546Z,15.35
2022-09-23T06:34:50.244Z,15.37
2022-09-23T06:39:58.254Z,15.42
2022-09-23T06:45:04.516Z,15.44
2022-09-23T06:50:12.751Z,15.44
2022-09-23T06:55:19.133Z,15.44
2022-09-23T07:00:25.637Z,15.44
2022-09-23T07:05:32.087Z,15.44
2022-09-23T07:10:38.851Z,15.43
2022-09-23T07:15:51.130Z,15.45
2022-09-23T07:20:59.183Z,15.45
2022-09-23T07:26:06.231Z,15.44
2022-09-23T07:31:13.821Z,15.44
2022-09-23T07:36:20.863Z,15.45
2022-09-23T07:41:29.171Z,15.44
2022-09-23T07:46:36.793Z,15.43
2022-09-23T07:51:46.421Z,15.45
2022-09-23T07:56:53.041Z,15.43
2022-09-23T08:01:59.692Z,15.29
2022-09-23T08:07:06.953Z,15.15
2022-09-23T08:12:16.403Z,15.31
2022-09-23T08:17:22.722Z,15.41
2022-09-23T08:22:29.195Z,15.34
2022-09-23T08:27:35.833Z,15.36
2022-09-23T08:32:42.466Z,15.37
2022-09-23T08:37:49.321Z,15.36
2022-09-23T08:42:55.925Z,15.34
2022-09-23T08:48:10.790Z,15.34
2022-09-23T08:53:25.452Z,15.35
2022-09-23T08:58:42.568Z,15.34
2022-09-23T09:03:50.609Z,15.34
2022-09-23T09:08:58.672Z,15.32
2022-09-23T09:14:12.668Z,15.32
2022-09-23T09:19:20.682Z,15.30
2022-09-23T09:24:29.952Z,15.30
2022-09-23T09:29:40.252Z,15.29
2022-09-23T09:34:54.488Z,15.32
2022-09-23T09:40:01.322Z,15.34
2022-09-23T09:45:13.432Z,15.41
2022-09-23T09:50:22.483Z,15.47
2022-09-23T09:55:30.028Z,15.42
2022-09-23T10:00:44.868Z,15.46
2022-09-23T10:05:52.566Z,15.56
2022-09-23T10:11:03.651Z,15.58
2022-09-23T10:16:10.512Z,15.54
2022-09-23T10:21:17.993Z,15.57
2022-09-23T10:26:31.242Z,15.58
2022-09-23T10:31:38.693Z,15.61
2022-09-23T10:36:45.203Z,15.57
2022-09-23T10:42:12.896Z,15.58
2022-09-23T10:47:23.938Z,15.55
2022-09-23T10:52:36.601Z,15.54
2022-09-23T10:57:52.587Z,15.47
2022-09-23T11:03:10.064Z,15.49
2022-09-23T11:08:36.757Z,15.49
2022-09-23T11:13:54.601Z,15.51
2022-09-23T11:19:32.622Z,15.51
2022-09-23T11:24:52.480Z,15.51
2022-09-23T11:30:06.353Z,15.50
2022-09-23T11:35:20.810Z,15.51
2022-09-23T11:40:32.444Z,15.48
2022-09-23T11:45:42.733Z,15.45
2022-09-23T11:50:52.066Z,15.48
2022-09-23T11:56:02.540Z,15.44
2022-09-23T12:01:10.905Z,15.46
2022-09-23T12:06:20.924Z,15.44
2022-09-23T12:11:57.134Z,15.44
2022-09-23T12:17:16.921Z,15.42
2022-09-23T12:22:31.776Z,15.45
2022-09-23T12:33:56.348Z,15.42
2022-09-23T12:39:04.231Z,15.43
2022-09-23T12:50:51.191Z,15.42
2022-09-23T12:56:00.090Z,15.44
2022-09-23T13:07:16.754Z,15.44
2022-09-23T13:12:26.640Z,15.42
2022-09-23T13:17:35.188Z,15.44
2022-09-23T13:28:56.526Z,15.42
2022-09-23T13:34:04.629Z,15.41
2022-09-23T13:39:17.556Z,15.42
2022-09-23T13:50:35.164Z,15.40
2022-09-23T13:55:41.845Z,15.41
2022-09-23T14:00:48.515Z,15.39
2022-09-23T14:06:31.494Z,15.40
2022-09-23T14:11:38.217Z,15.39
2022-09-23T14:16:45.051Z,15.40
2022-09-23T14:21:53.278Z,15.42
2022-09-23T14:33:12.295Z,15.41
2022-09-23T14:38:42.556Z,15.40
2022-09-23T14:50:11.608Z,15.40
2022-09-23T14:59:34.574Z,15.43
2022-09-23T15:11:08.439Z,15.39
2022-09-23T15:16:17.135Z,15.40
2022-09-23T15:21:24.116Z,15.40
2022-09-23T15:26:49.394Z,15.40
2022-09-23T15:31:56.280Z,15.38
2022-09-23T15:37:03.426Z,15.40
2022-09-23T15:42:10.722Z,15.37
2022-09-23T15:53:55.252Z,15.37
2022-09-23T15:59:02.056Z,15.38
2022-09-23T16:04:08.763Z,15.37
2022-09-23T16:09:31.958Z,15.38
2022-09-23T16:14:38.371Z,15.38
2022-09-23T16:19:45.008Z,15.37
2022-09-23T16:24:51.835Z,15.38
2022-09-23T16:35:45.988Z,15.36
2022-09-23T16:40:53.312Z,15.34
2022-09-23T16:46:00.251Z,15.33
2022-09-23T16:57:21.571Z,15.33
2022-09-23T17:02:45.563Z,15.32
2022-09-23T17:07:51.954Z,15.33
2022-09-23T17:13:22.184Z,15.32
2022-09-23T17:18:29.019Z,15.31
2022-09-23T17:23:36.192Z,15.34
2022-09-23T17:28:42.591Z,15.33
2022-09-23T17:40:00.571Z,15.31
2022-09-23T17:45:07.491Z,15.32
2022-09-23T17:50:15.202Z,15.34
2022-09-23T17:55:54.420Z,15.31
2022-09-23T18:02:30.352Z,15.34
2022-09-23T18:07:39.550Z,15.30
2022-09-23T18:13:15.729Z,15.33
2022-09-23T18:18:22.210Z,15.30
2022-09-23T18:23:28.651Z,15.29
2022-09-23T18:34:22.011Z,15.28
2022-09-23T18:39:28.393Z,15.28
2022-09-23T18:44:34.763Z,15.29
2022-09-23T18:49:58.671Z,15.27
2022-09-23T19:01:14.605Z,15.30
2022-09-23T19:06:21.387Z,15.27
2022-09-23T19:17:55.014Z,15.26
2022-09-23T19:23:01.812Z,15.29
2022-09-23T19:28:08.662Z,15.26
2022-09-23T19:39:24.469Z,15.24
2022-09-23T19:44:31.092Z,15.24
2022-09-23T19:56:03.563Z,15.26
2022-09-23T20:01:10.222Z,15.25
2022-09-23T20:06:17.302Z,15.27
2022-09-23T20:12:00.591Z,15.24
2022-09-23T20:17:13.971Z,15.24
2022-09-23T20:22:30.807Z,15.28
2022-09-23T20:27:39.652Z,15.27
2022-09-23T20:32:45.968Z,15.25
2022-09-23T20:38:32.952Z,15.24
2022-09-23T20:43:40.111Z,15.23
2022-09-23T20:48:47.853Z,15.23
2022-09-23T20:53:54.609Z,15.23
2022-09-23T20:59:33.302Z,15.24
2022-09-23T21:04:39.745Z,15.23
2022-09-23T21:09:46.189Z,15.24
2022-09-23T21:14:52.931Z,15.23
2022-09-23T21:20:02.125Z,15.23
2022-09-23T21:25:41.160Z,15.22
2022-09-23T21:30:51.819Z,15.21
2022-09-23T21:36:04.062Z,15.22
2022-09-23T21:41:11.899Z,15.22
2022-09-23T21:46:55.077Z,15.20
2022-09-23T21:52:01.723Z,15.21
2022-09-23T21:57:08.521Z,15.20
2022-09-23T22:02:15.005Z,15.21
2022-09-23T22:07:48.193Z,15.22
2022-09-23T22:12:54.433Z,15.20
2022-09-23T22:18:00.951Z,15.19
2022-09-23T22:23:07.971Z,15.20
2022-09-23T22:34:51.106Z,15.20
2022-09-23T22:39:58.270Z,15.21
2022-09-23T22:45:20.487Z,15.18
2022-09-23T22:50:27.105Z,15.21
2022-09-23T22:55:33.544Z,15.18
2022-09-23T23:00:40.131Z,15.16
2022-09-23T23:05:47.481Z,15.19
2022-09-23T23:17:09.645Z,15.17
2022-09-23T23:22:16.121Z,15.18
2022-09-23T23:27:22.487Z,15.18
2022-09-23T23:32:55.415Z,15.18
2022-09-23T23:38:01.855Z,15.16
2022-09-23T23:43:08.280Z,15.16
2022-09-23T23:48:14.859Z,15.16
2022-09-23T23:59:25.180Z,15.16
